sensor_id;sensor_type;location;lat;lon;timestamp;pressure;altitude;pressure_sealevel;temperature
12918;BMP180;6526;54.312;13.092;2024-03-07T00:02:10;103252.00;;;10.60
12918;BMP180;6526;54.312;13.092;2024-03-07T00:04:36;103251.00;;;10.60
12918;BMP180;6526;54.312;13.092;2024-03-07T00:07:03;103251.00;;;10.60
12918;BMP180;6526;54.312;13.092;2024-03-07T00:09:33;103262.00;;;10.70
12918;BMP180;6526;54.312;13.092;2024-03-07T00:12:00;103261.00;;;10.70
12918;BMP180;6526;54.312;13.092;2024-03-07T00:14:26;103261.00;;;10.60
12918;BMP180;6526;54.312;13.092;2024-03-07T00:17:02;103251.00;;;10.60
12918;BMP180;6526;54.312;13.092;2024-03-07T00:19:29;103258.00;;;10.60
12918;BMP180;6526;54.312;13.092;2024-03-07T00:21:56;103259.00;;;10.60
12918;BMP180;6526;54.312;13.092;2024-03-07T00:24:23;103267.00;;;10.60
12918;BMP180;6526;54.312;13.092;2024-03-07T00:26:49;103264.00;;;10.70
12918;BMP180;6526;54.312;13.092;2024-03-07T00:29:18;103257.00;;;10.70
12918;BMP180;6526;54.312;13.092;2024-03-07T00:31:47;103264.00;;;10.80
12918;BMP180;6526;54.312;13.092;2024-03-07T00:34:14;103263.00;;;10.90
12918;BMP180;6526;54.312;13.092;2024-03-07T00:36:42;103251.00;;;10.90
12918;BMP180;6526;54.312;13.092;2024-03-07T00:39:08;103258.00;;;10.80
12918;BMP180;6526;54.312;13.092;2024-03-07T00:41:40;103261.00;;;10.90
12918;BMP180;6526;54.312;13.092;2024-03-07T00:44:07;103259.00;;;11.00
12918;BMP180;6526;54.312;13.092;2024-03-07T00:46:35;103255.00;;;11.00
12918;BMP180;6526;54.312;13.092;2024-03-07T00:49:02;103262.00;;;10.90
12918;BMP180;6526;54.312;13.092;2024-03-07T00:51:28;103257.00;;;10.90
12918;BMP180;6526;54.312;13.092;2024-03-07T00:53:54;103262.00;;;11.00
12918;BMP180;6526;54.312;13.092;2024-03-07T00:56:21;103245.00;;;10.90
12918;BMP180;6526;54.312;13.092;2024-03-07T00:58:47;103246.00;;;10.80
12918;BMP180;6526;54.312;13.092;2024-03-07T01:01:13;103243.00;;;10.90
12918;BMP180;6526;54.312;13.092;2024-03-07T01:03:41;103244.00;;;10.90
12918;BMP180;6526;54.312;13.092;2024-03-07T01:06:07;103244.00;;;11.00
12918;BMP180;6526;54.312;13.092;2024-03-07T01:08:35;103232.00;;;10.90
12918;BMP180;6526;54.312;13.092;2024-03-07T01:11:03;103235.00;;;10.90
12918;BMP180;6526;54.312;13.092;2024-03-07T01:13:36;103225.00;;;10.90
12918;BMP180;6526;54.312;13.092;2024-03-07T01:16:02;103232.00;;;10.80
12918;BMP180;6526;54.312;13.092;2024-03-07T01:18:28;103227.00;;;10.70
12918;BMP180;6526;54.312;13.092;2024-03-07T01:20:54;103226.00;;;10.70
12918;BMP180;6526;54.312;13.092;2024-03-07T01:23:20;103223.00;;;10.70
12918;BMP180;6526;54.312;13.092;2024-03-07T01:25:46;103230.00;;;10.60
12918;BMP180;6526;54.312;13.092;2024-03-07T01:28:12;103227.00;;;10.60
12918;BMP180;6526;54.312;13.092;2024-03-07T01:30:40;103222.00;;;10.60
12918;BMP180;6526;54.312;13.092;2024-03-07T01:33:06;103221.00;;;10.60
12918;BMP180;6526;54.312;13.092;2024-03-07T01:35:32;103221.00;;;10.60
12918;BMP180;6526;54.312;13.092;2024-03-07T01:37:58;103218.00;;;10.70
12918;BMP180;6526;54.312;13.092;2024-03-07T01:40:24;103221.00;;;10.70
12918;BMP180;6526;54.312;13.092;2024-03-07T01:42:50;103231.00;;;10.70
12918;BMP180;6526;54.312;13.092;2024-03-07T01:45:16;103224.00;;;10.70
12918;BMP180;6526;54.312;13.092;2024-03-07T01:47:44;103222.00;;;10.70
12918;BMP180;6526;54.312;13.092;2024-03-07T01:50:10;103220.00;;;10.70
12918;BMP180;6526;54.312;13.092;2024-03-07T01:52:39;103235.00;;;10.70
12918;BMP180;6526;54.312;13.092;2024-03-07T01:55:06;103229.00;;;10.70
12918;BMP180;6526;54.312;13.092;2024-03-07T01:57:33;103218.00;;;10.70
12918;BMP180;6526;54.312;13.092;2024-03-07T02:00:01;103215.00;;;10.60
12918;BMP180;6526;54.312;13.092;2024-03-07T02:02:32;103219.00;;;10.60
12918;BMP180;6526;54.312;13.092;2024-03-07T02:04:58;103221.00;;;10.70
12918;BMP180;6526;54.312;13.092;2024-03-07T02:07:24;103213.00;;;10.60
12918;BMP180;6526;54.312;13.092;2024-03-07T02:09:59;103218.00;;;10.60
12918;BMP180;6526;54.312;13.092;2024-03-07T02:12:25;103218.00;;;10.60
12918;BMP180;6526;54.312;13.092;2024-03-07T02:14:52;103213.00;;;10.70
12918;BMP180;6526;54.312;13.092;2024-03-07T02:17:18;103214.00;;;10.70
12918;BMP180;6526;54.312;13.092;2024-03-07T02:19:46;103218.00;;;10.70
12918;BMP180;6526;54.312;13.092;2024-03-07T02:22:12;103212.00;;;10.70
12918;BMP180;6526;54.312;13.092;2024-03-07T02:24:39;103224.00;;;10.70
12918;BMP180;6526;54.312;13.092;2024-03-07T02:27:05;103206.00;;;10.60
12918;BMP180;6526;54.312;13.092;2024-03-07T02:29:31;103207.00;;;10.50
12918;BMP180;6526;54.312;13.092;2024-03-07T02:31:57;103208.00;;;10.50
12918;BMP180;6526;54.312;13.092;2024-03-07T02:34:23;103201.00;;;10.50
12918;BMP180;6526;54.312;13.092;2024-03-07T02:36:49;103207.00;;;10.40
12918;BMP180;6526;54.312;13.092;2024-03-07T02:39:15;103212.00;;;10.40
12918;BMP180;6526;54.312;13.092;2024-03-07T02:41:42;103217.00;;;10.40
12918;BMP180;6526;54.312;13.092;2024-03-07T02:44:08;103207.00;;;10.50
12918;BMP180;6526;54.312;13.092;2024-03-07T02:46:34;103211.00;;;10.50
12918;BMP180;6526;54.312;13.092;2024-03-07T02:49:00;103220.00;;;10.50
12918;BMP180;6526;54.312;13.092;2024-03-07T02:51:26;103208.00;;;10.50
12918;BMP180;6526;54.312;13.092;2024-03-07T02:53:52;103204.00;;;10.50
12918;BMP180;6526;54.312;13.092;2024-03-07T02:56:18;103207.00;;;10.50
12918;BMP180;6526;54.312;13.092;2024-03-07T02:58:44;103198.00;;;10.40
12918;BMP180;6526;54.312;13.092;2024-03-07T03:01:10;103204.00;;;10.30
12918;BMP180;6526;54.312;13.092;2024-03-07T03:03:37;103204.00;;;10.20
12918;BMP180;6526;54.312;13.092;2024-03-07T03:06:03;103201.00;;;10.20
12918;BMP180;6526;54.312;13.092;2024-03-07T03:08:31;103205.00;;;10.20
12918;BMP180;6526;54.312;13.092;2024-03-07T03:10:57;103207.00;;;10.30
12918;BMP180;6526;54.312;13.092;2024-03-07T03:13:24;103212.00;;;10.30
12918;BMP180;6526;54.312;13.092;2024-03-07T03:15:53;103206.00;;;10.30
12918;BMP180;6526;54.312;13.092;2024-03-07T03:18:21;103201.00;;;10.30
12918;BMP180;6526;54.312;13.092;2024-03-07T03:20:48;103194.00;;;10.30
12918;BMP180;6526;54.312;13.092;2024-03-07T03:23:14;103196.00;;;10.20
12918;BMP180;6526;54.312;13.092;2024-03-07T03:25:40;103203.00;;;10.30
12918;BMP180;6526;54.312;13.092;2024-03-07T03:28:07;103200.00;;;10.40
12918;BMP180;6526;54.312;13.092;2024-03-07T03:30:40;103193.00;;;10.40
12918;BMP180;6526;54.312;13.092;2024-03-07T03:33:10;103193.00;;;10.40
12918;BMP180;6526;54.312;13.092;2024-03-07T03:35:37;103199.00;;;10.40
12918;BMP180;6526;54.312;13.092;2024-03-07T03:38:03;103202.00;;;10.40
12918;BMP180;6526;54.312;13.092;2024-03-07T03:40:29;103200.00;;;10.40
12918;BMP180;6526;54.312;13.092;2024-03-07T03:42:56;103195.00;;;10.30
12918;BMP180;6526;54.312;13.092;2024-03-07T03:45:22;103188.00;;;10.30
12918;BMP180;6526;54.312;13.092;2024-03-07T03:47:48;103191.00;;;10.30
12918;BMP180;6526;54.312;13.092;2024-03-07T03:50:14;103192.00;;;10.20
12918;BMP180;6526;54.312;13.092;2024-03-07T03:52:40;103196.00;;;10.20
12918;BMP180;6526;54.312;13.092;2024-03-07T03:55:07;103200.00;;;10.30
12918;BMP180;6526;54.312;13.092;2024-03-07T03:57:40;103202.00;;;10.30
12918;BMP180;6526;54.312;13.092;2024-03-07T04:00:07;103200.00;;;10.30
12918;BMP180;6526;54.312;13.092;2024-03-07T04:02:41;103203.00;;;10.40
12918;BMP180;6526;54.312;13.092;2024-03-07T04:05:08;103201.00;;;10.30
12918;BMP180;6526;54.312;13.092;2024-03-07T04:07:35;103179.00;;;10.30
12918;BMP180;6526;54.312;13.092;2024-03-07T04:10:01;103199.00;;;10.20
12918;BMP180;6526;54.312;13.092;2024-03-07T04:12:36;103188.00;;;10.20
12918;BMP180;6526;54.312;13.092;2024-03-07T04:15:07;103201.00;;;10.20
12918;BMP180;6526;54.312;13.092;2024-03-07T04:17:36;103197.00;;;10.20
12918;BMP180;6526;54.312;13.092;2024-03-07T04:20:04;103198.00;;;10.20
12918;BMP180;6526;54.312;13.092;2024-03-07T04:22:36;103192.00;;;10.20
12918;BMP180;6526;54.312;13.092;2024-03-07T04:25:08;103194.00;;;10.20
12918;BMP180;6526;54.312;13.092;2024-03-07T04:27:35;103203.00;;;10.20
12918;BMP180;6526;54.312;13.092;2024-03-07T04:30:06;103205.00;;;10.10
12918;BMP180;6526;54.312;13.092;2024-03-07T04:32:33;103195.00;;;10.00
12918;BMP180;6526;54.312;13.092;2024-03-07T04:35:02;103198.00;;;10.10
12918;BMP180;6526;54.312;13.092;2024-03-07T04:37:33;103195.00;;;10.10
12918;BMP180;6526;54.312;13.092;2024-03-07T04:40:03;103196.00;;;10.10
12918;BMP180;6526;54.312;13.092;2024-03-07T04:42:30;103196.00;;;10.10
12918;BMP180;6526;54.312;13.092;2024-03-07T04:44:56;103200.00;;;10.20
12918;BMP180;6526;54.312;13.092;2024-03-07T04:47:22;103207.00;;;10.20
12918;BMP180;6526;54.312;13.092;2024-03-07T04:49:48;103201.00;;;10.20
12918;BMP180;6526;54.312;13.092;2024-03-07T04:52:14;103204.00;;;10.10
12918;BMP180;6526;54.312;13.092;2024-03-07T04:54:40;103213.00;;;10.10
12918;BMP180;6526;54.312;13.092;2024-03-07T04:57:06;103206.00;;;10.10
12918;BMP180;6526;54.312;13.092;2024-03-07T04:59:32;103212.00;;;10.10
12918;BMP180;6526;54.312;13.092;2024-03-07T05:01:58;103203.00;;;10.00
12918;BMP180;6526;54.312;13.092;2024-03-07T05:04:24;103214.00;;;10.00
12918;BMP180;6526;54.312;13.092;2024-03-07T05:06:50;103218.00;;;10.00
12918;BMP180;6526;54.312;13.092;2024-03-07T05:09:16;103217.00;;;10.10
12918;BMP180;6526;54.312;13.092;2024-03-07T05:11:52;103214.00;;;10.20
12918;BMP180;6526;54.312;13.092;2024-03-07T05:14:18;103221.00;;;10.20
12918;BMP180;6526;54.312;13.092;2024-03-07T05:16:44;103222.00;;;10.20
12918;BMP180;6526;54.312;13.092;2024-03-07T05:19:10;103223.00;;;10.20
12918;BMP180;6526;54.312;13.092;2024-03-07T05:21:36;103231.00;;;10.20
12918;BMP180;6526;54.312;13.092;2024-03-07T05:24:08;103217.00;;;10.20
12918;BMP180;6526;54.312;13.092;2024-03-07T05:26:35;103224.00;;;10.10
12918;BMP180;6526;54.312;13.092;2024-03-07T05:29:07;103223.00;;;10.10
12918;BMP180;6526;54.312;13.092;2024-03-07T05:31:38;103229.00;;;10.00
12918;BMP180;6526;54.312;13.092;2024-03-07T05:34:05;103225.00;;;10.00
12918;BMP180;6526;54.312;13.092;2024-03-07T05:36:37;103237.00;;;10.00
12918;BMP180;6526;54.312;13.092;2024-03-07T05:39:10;103222.00;;;10.10
12918;BMP180;6526;54.312;13.092;2024-03-07T05:41:37;103238.00;;;10.10
12918;BMP180;6526;54.312;13.092;2024-03-07T05:44:04;103233.00;;;10.00
12918;BMP180;6526;54.312;13.092;2024-03-07T05:46:37;103229.00;;;10.00
12918;BMP180;6526;54.312;13.092;2024-03-07T05:49:07;103232.00;;;10.00
12918;BMP180;6526;54.312;13.092;2024-03-07T05:51:33;103241.00;;;9.90
12918;BMP180;6526;54.312;13.092;2024-03-07T05:53:59;103238.00;;;9.90
12918;BMP180;6526;54.312;13.092;2024-03-07T05:56:25;103244.00;;;9.90
12918;BMP180;6526;54.312;13.092;2024-03-07T05:58:51;103243.00;;;9.90
12918;BMP180;6526;54.312;13.092;2024-03-07T06:01:18;103236.00;;;9.90
12918;BMP180;6526;54.312;13.092;2024-03-07T06:03:44;103243.00;;;10.00
12918;BMP180;6526;54.312;13.092;2024-03-07T06:06:11;103238.00;;;9.90
12918;BMP180;6526;54.312;13.092;2024-03-07T06:08:38;103249.00;;;9.90
12918;BMP180;6526;54.312;13.092;2024-03-07T06:11:08;103243.00;;;10.00
12918;BMP180;6526;54.312;13.092;2024-03-07T06:13:34;103242.00;;;10.00
12918;BMP180;6526;54.312;13.092;2024-03-07T06:16:00;103243.00;;;10.00
12918;BMP180;6526;54.312;13.092;2024-03-07T06:18:30;103246.00;;;9.90
12918;BMP180;6526;54.312;13.092;2024-03-07T06:20:57;103246.00;;;10.00
12918;BMP180;6526;54.312;13.092;2024-03-07T06:23:23;103247.00;;;10.00
12918;BMP180;6526;54.312;13.092;2024-03-07T06:25:50;103248.00;;;10.10
12918;BMP180;6526;54.312;13.092;2024-03-07T06:28:20;103248.00;;;10.10
12918;BMP180;6526;54.312;13.092;2024-03-07T06:30:46;103262.00;;;10.20
12918;BMP180;6526;54.312;13.092;2024-03-07T06:33:13;103260.00;;;10.20
12918;BMP180;6526;54.312;13.092;2024-03-07T06:35:40;103257.00;;;10.20
12918;BMP180;6526;54.312;13.092;2024-03-07T06:38:08;103258.00;;;10.30
12918;BMP180;6526;54.312;13.092;2024-03-07T06:40:34;103260.00;;;10.30
12918;BMP180;6526;54.312;13.092;2024-03-07T06:43:00;103258.00;;;10.50
12918;BMP180;6526;54.312;13.092;2024-03-07T06:45:27;103253.00;;;10.50
12918;BMP180;6526;54.312;13.092;2024-03-07T06:47:53;103260.00;;;10.50
12918;BMP180;6526;54.312;13.092;2024-03-07T06:50:19;103257.00;;;10.70
12918;BMP180;6526;54.312;13.092;2024-03-07T06:52:49;103267.00;;;10.70
12918;BMP180;6526;54.312;13.092;2024-03-07T06:55:18;103269.00;;;10.70
12918;BMP180;6526;54.312;13.092;2024-03-07T06:57:45;103263.00;;;10.60
12918;BMP180;6526;54.312;13.092;2024-03-07T07:00:12;103262.00;;;10.70
12918;BMP180;6526;54.312;13.092;2024-03-07T07:02:40;103268.00;;;10.70
12918;BMP180;6526;54.312;13.092;2024-03-07T07:05:07;103261.00;;;10.70
12918;BMP180;6526;54.312;13.092;2024-03-07T07:07:40;103270.00;;;10.70
12918;BMP180;6526;54.312;13.092;2024-03-07T07:10:09;103273.00;;;10.90
12918;BMP180;6526;54.312;13.092;2024-03-07T07:12:42;103264.00;;;11.10
12918;BMP180;6526;54.312;13.092;2024-03-07T07:15:13;103286.00;;;11.20
12918;BMP180;6526;54.312;13.092;2024-03-07T07:17:39;103274.00;;;11.30
12918;BMP180;6526;54.312;13.092;2024-03-07T07:20:05;103267.00;;;11.50
12918;BMP180;6526;54.312;13.092;2024-03-07T07:22:36;103272.00;;;11.50
12918;BMP180;6526;54.312;13.092;2024-03-07T07:25:03;103276.00;;;11.50
12918;BMP180;6526;54.312;13.092;2024-03-07T07:27:34;103273.00;;;11.50
12918;BMP180;6526;54.312;13.092;2024-03-07T07:30:00;103273.00;;;11.60
12918;BMP180;6526;54.312;13.092;2024-03-07T07:32:26;103268.00;;;11.60
12918;BMP180;6526;54.312;13.092;2024-03-07T07:34:53;103282.00;;;11.70
12918;BMP180;6526;54.312;13.092;2024-03-07T07:37:20;103286.00;;;12.00
12918;BMP180;6526;54.312;13.092;2024-03-07T07:39:46;103280.00;;;12.00
12918;BMP180;6526;54.312;13.092;2024-03-07T07:42:12;103288.00;;;12.20
12918;BMP180;6526;54.312;13.092;2024-03-07T07:44:38;103280.00;;;12.40
12918;BMP180;6526;54.312;13.092;2024-03-07T07:47:04;103280.00;;;12.50
12918;BMP180;6526;54.312;13.092;2024-03-07T07:49:31;103279.00;;;12.50
12918;BMP180;6526;54.312;13.092;2024-03-07T07:51:57;103277.00;;;12.50
12918;BMP180;6526;54.312;13.092;2024-03-07T07:54:23;103274.00;;;12.40
12918;BMP180;6526;54.312;13.092;2024-03-07T07:56:50;103274.00;;;12.20
12918;BMP180;6526;54.312;13.092;2024-03-07T07:59:17;103280.00;;;12.10
12918;BMP180;6526;54.312;13.092;2024-03-07T08:01:44;103278.00;;;12.00
12918;BMP180;6526;54.312;13.092;2024-03-07T08:04:10;103276.00;;;12.00
12918;BMP180;6526;54.312;13.092;2024-03-07T08:06:36;103273.00;;;11.90
12918;BMP180;6526;54.312;13.092;2024-03-07T08:09:02;103275.00;;;11.90
12918;BMP180;6526;54.312;13.092;2024-03-07T08:11:28;103286.00;;;11.90
12918;BMP180;6526;54.312;13.092;2024-03-07T08:13:54;103276.00;;;11.90
12918;BMP180;6526;54.312;13.092;2024-03-07T08:16:20;103282.00;;;12.10
12918;BMP180;6526;54.312;13.092;2024-03-07T08:18:46;103282.00;;;12.10
12918;BMP180;6526;54.312;13.092;2024-03-07T08:21:12;103285.00;;;12.20
12918;BMP180;6526;54.312;13.092;2024-03-07T08:23:39;103275.00;;;12.30
12918;BMP180;6526;54.312;13.092;2024-03-07T08:26:05;103276.00;;;12.40
12918;BMP180;6526;54.312;13.092;2024-03-07T08:28:31;103281.00;;;12.60
12918;BMP180;6526;54.312;13.092;2024-03-07T08:30:57;103285.00;;;12.80
12918;BMP180;6526;54.312;13.092;2024-03-07T08:33:25;103290.00;;;12.80
12918;BMP180;6526;54.312;13.092;2024-03-07T08:35:51;103283.00;;;12.90
12918;BMP180;6526;54.312;13.092;2024-03-07T08:38:19;103281.00;;;13.00
12918;BMP180;6526;54.312;13.092;2024-03-07T08:40:46;103286.00;;;13.20
12918;BMP180;6526;54.312;13.092;2024-03-07T08:43:12;103289.00;;;13.40
12918;BMP180;6526;54.312;13.092;2024-03-07T08:45:38;103289.00;;;13.50
12918;BMP180;6526;54.312;13.092;2024-03-07T08:48:04;103286.00;;;13.60
12918;BMP180;6526;54.312;13.092;2024-03-07T08:50:30;103281.00;;;13.50
12918;BMP180;6526;54.312;13.092;2024-03-07T08:52:58;103283.00;;;13.40
12918;BMP180;6526;54.312;13.092;2024-03-07T08:55:25;103287.00;;;13.50
12918;BMP180;6526;54.312;13.092;2024-03-07T08:57:51;103280.00;;;13.70
12918;BMP180;6526;54.312;13.092;2024-03-07T09:00:18;103286.00;;;13.90
12918;BMP180;6526;54.312;13.092;2024-03-07T09:02:55;103285.00;;;13.80
12918;BMP180;6526;54.312;13.092;2024-03-07T09:05:24;103283.00;;;13.90
12918;BMP180;6526;54.312;13.092;2024-03-07T09:07:50;103294.00;;;14.20
12918;BMP180;6526;54.312;13.092;2024-03-07T09:10:17;103289.00;;;14.30
12918;BMP180;6526;54.312;13.092;2024-03-07T09:12:44;103289.00;;;14.20
12918;BMP180;6526;54.312;13.092;2024-03-07T09:15:11;103290.00;;;14.10
12918;BMP180;6526;54.312;13.092;2024-03-07T09:17:38;103281.00;;;14.30
12918;BMP180;6526;54.312;13.092;2024-03-07T09:20:05;103288.00;;;14.40
12918;BMP180;6526;54.312;13.092;2024-03-07T09:22:32;103290.00;;;14.40
12918;BMP180;6526;54.312;13.092;2024-03-07T09:24:58;103285.00;;;14.50
12918;BMP180;6526;54.312;13.092;2024-03-07T09:27:25;103282.00;;;14.40
12918;BMP180;6526;54.312;13.092;2024-03-07T09:29:51;103292.00;;;14.50
12918;BMP180;6526;54.312;13.092;2024-03-07T09:32:17;103284.00;;;14.60
12918;BMP180;6526;54.312;13.092;2024-03-07T09:34:43;103280.00;;;14.90
12918;BMP180;6526;54.312;13.092;2024-03-07T09:37:09;103292.00;;;14.90
12918;BMP180;6526;54.312;13.092;2024-03-07T09:39:36;103290.00;;;15.10
12918;BMP180;6526;54.312;13.092;2024-03-07T09:42:08;103292.00;;;15.20
12918;BMP180;6526;54.312;13.092;2024-03-07T09:44:38;103288.00;;;15.10
12918;BMP180;6526;54.312;13.092;2024-03-07T09:47:05;103290.00;;;15.00
12918;BMP180;6526;54.312;13.092;2024-03-07T09:49:33;103290.00;;;15.10
12918;BMP180;6526;54.312;13.092;2024-03-07T09:52:08;103294.00;;;15.00
12918;BMP180;6526;54.312;13.092;2024-03-07T09:54:37;103293.00;;;15.10
12918;BMP180;6526;54.312;13.092;2024-03-07T09:57:06;103279.00;;;14.90
12918;BMP180;6526;54.312;13.092;2024-03-07T09:59:35;103293.00;;;14.70
12918;BMP180;6526;54.312;13.092;2024-03-07T10:02:04;103286.00;;;14.80
12918;BMP180;6526;54.312;13.092;2024-03-07T10:04:38;103284.00;;;14.80
12918;BMP180;6526;54.312;13.092;2024-03-07T10:07:07;103291.00;;;14.80
12918;BMP180;6526;54.312;13.092;2024-03-07T10:09:38;103300.00;;;14.80
12918;BMP180;6526;54.312;13.092;2024-03-07T10:12:06;103292.00;;;14.90
12918;BMP180;6526;54.312;13.092;2024-03-07T10:14:38;103292.00;;;15.10
12918;BMP180;6526;54.312;13.092;2024-03-07T10:17:05;103302.00;;;15.00
12918;BMP180;6526;54.312;13.092;2024-03-07T10:19:31;103291.00;;;14.80
12918;BMP180;6526;54.312;13.092;2024-03-07T10:21:59;103293.00;;;14.90
12918;BMP180;6526;54.312;13.092;2024-03-07T10:24:27;103299.00;;;14.90
12918;BMP180;6526;54.312;13.092;2024-03-07T10:26:54;103290.00;;;14.80
12918;BMP180;6526;54.312;13.092;2024-03-07T10:29:23;103285.00;;;14.70
12918;BMP180;6526;54.312;13.092;2024-03-07T10:31:50;103287.00;;;14.70
12918;BMP180;6526;54.312;13.092;2024-03-07T10:34:16;103297.00;;;14.50
12918;BMP180;6526;54.312;13.092;2024-03-07T10:36:43;103300.00;;;14.60
12918;BMP180;6526;54.312;13.092;2024-03-07T10:39:10;103292.00;;;14.50
12918;BMP180;6526;54.312;13.092;2024-03-07T10:41:47;103291.00;;;14.30
12918;BMP180;6526;54.312;13.092;2024-03-07T10:44:24;103283.00;;;14.20
12918;BMP180;6526;54.312;13.092;2024-03-07T10:46:55;103287.00;;;14.40
12918;BMP180;6526;54.312;13.092;2024-03-07T10:49:25;103285.00;;;14.50
12918;BMP180;6526;54.312;13.092;2024-03-07T10:54:43;103280.00;;;14.70
12918;BMP180;6526;54.312;13.092;2024-03-07T10:57:29;103284.00;;;14.60
12918;BMP180;6526;54.312;13.092;2024-03-07T11:00:02;103276.00;;;14.40
12918;BMP180;6526;54.312;13.092;2024-03-07T11:02:46;103280.00;;;14.40
12918;BMP180;6526;54.312;13.092;2024-03-07T11:05:13;103281.00;;;14.50
12918;BMP180;6526;54.312;13.092;2024-03-07T11:07:41;103279.00;;;14.60
12918;BMP180;6526;54.312;13.092;2024-03-07T11:10:09;103274.00;;;14.70
12918;BMP180;6526;54.312;13.092;2024-03-07T11:12:39;103280.00;;;14.80
12918;BMP180;6526;54.312;13.092;2024-03-07T11:15:09;103278.00;;;14.90
12918;BMP180;6526;54.312;13.092;2024-03-07T11:17:42;103269.00;;;14.70
12918;BMP180;6526;54.312;13.092;2024-03-07T11:20:25;103283.00;;;14.80
12918;BMP180;6526;54.312;13.092;2024-03-07T11:22:52;103273.00;;;14.90
12918;BMP180;6526;54.312;13.092;2024-03-07T11:25:22;103271.00;;;14.90
12918;BMP180;6526;54.312;13.092;2024-03-07T11:28:00;103275.00;;;14.80
12918;BMP180;6526;54.312;13.092;2024-03-07T11:30:26;103275.00;;;14.90
12918;BMP180;6526;54.312;13.092;2024-03-07T11:32:53;103280.00;;;14.90
12918;BMP180;6526;54.312;13.092;2024-03-07T11:35:21;103265.00;;;14.90
12918;BMP180;6526;54.312;13.092;2024-03-07T11:37:58;103269.00;;;15.00
12918;BMP180;6526;54.312;13.092;2024-03-07T11:42:55;103256.00;;;15.20
12918;BMP180;6526;54.312;13.092;2024-03-07T11:45:25;103262.00;;;15.30
12918;BMP180;6526;54.312;13.092;2024-03-07T11:47:56;103248.00;;;15.30
12918;BMP180;6526;54.312;13.092;2024-03-07T11:50:41;103256.00;;;15.20
12918;BMP180;6526;54.312;13.092;2024-03-07T11:53:08;103255.00;;;15.20
12918;BMP180;6526;54.312;13.092;2024-03-07T11:55:36;103252.00;;;15.10
12918;BMP180;6526;54.312;13.092;2024-03-07T11:58:13;103251.00;;;14.80
12918;BMP180;6526;54.312;13.092;2024-03-07T12:00:43;103256.00;;;14.70
12918;BMP180;6526;54.312;13.092;2024-03-07T12:03:13;103245.00;;;14.60
12918;BMP180;6526;54.312;13.092;2024-03-07T12:05:41;103233.00;;;14.70
12918;BMP180;6526;54.312;13.092;2024-03-07T12:08:07;103237.00;;;14.80
12918;BMP180;6526;54.312;13.092;2024-03-07T12:10:36;103234.00;;;14.80
12918;BMP180;6526;54.312;13.092;2024-03-07T12:13:03;103231.00;;;14.70
12918;BMP180;6526;54.312;13.092;2024-03-07T12:15:29;103235.00;;;14.70
12918;BMP180;6526;54.312;13.092;2024-03-07T12:17:56;103232.00;;;14.70
12918;BMP180;6526;54.312;13.092;2024-03-07T12:20:23;103230.00;;;14.70
12918;BMP180;6526;54.312;13.092;2024-03-07T12:23:00;103220.00;;;14.80
12918;BMP180;6526;54.312;13.092;2024-03-07T12:25:29;103222.00;;;14.90
12918;BMP180;6526;54.312;13.092;2024-03-07T12:33:12;103231.00;;;15.00
12918;BMP180;6526;54.312;13.092;2024-03-07T12:35:40;103226.00;;;14.80
12918;BMP180;6526;54.312;13.092;2024-03-07T12:38:10;103219.00;;;14.60
12918;BMP180;6526;54.312;13.092;2024-03-07T12:40:37;103227.00;;;14.60
12918;BMP180;6526;54.312;13.092;2024-03-07T12:43:17;103231.00;;;14.80
12918;BMP180;6526;54.312;13.092;2024-03-07T12:45:50;103219.00;;;14.80
12918;BMP180;6526;54.312;13.092;2024-03-07T12:48:17;103216.00;;;14.80
12918;BMP180;6526;54.312;13.092;2024-03-07T12:50:49;103219.00;;;14.80
12918;BMP180;6526;54.312;13.092;2024-03-07T12:53:24;103212.00;;;14.80
12918;BMP180;6526;54.312;13.092;2024-03-07T12:55:54;103218.00;;;14.90
12918;BMP180;6526;54.312;13.092;2024-03-07T12:58:21;103220.00;;;14.90
12918;BMP180;6526;54.312;13.092;2024-03-07T13:00:57;103205.00;;;14.80
12918;BMP180;6526;54.312;13.092;2024-03-07T13:03:26;103212.00;;;14.70
12918;BMP180;6526;54.312;13.092;2024-03-07T13:05:59;103205.00;;;14.50
12918;BMP180;6526;54.312;13.092;2024-03-07T13:08:27;103210.00;;;14.60
12918;BMP180;6526;54.312;13.092;2024-03-07T13:10:55;103210.00;;;14.70
12918;BMP180;6526;54.312;13.092;2024-03-07T13:13:21;103209.00;;;14.70
12918;BMP180;6526;54.312;13.092;2024-03-07T13:15:47;103200.00;;;14.60
12918;BMP180;6526;54.312;13.092;2024-03-07T13:18:14;103199.00;;;14.50
12918;BMP180;6526;54.312;13.092;2024-03-07T13:20:40;103200.00;;;14.60
12918;BMP180;6526;54.312;13.092;2024-03-07T13:23:09;103194.00;;;14.50
12918;BMP180;6526;54.312;13.092;2024-03-07T13:25:36;103197.00;;;14.50
12918;BMP180;6526;54.312;13.092;2024-03-07T13:28:08;103187.00;;;14.40
12918;BMP180;6526;54.312;13.092;2024-03-07T13:30:41;103188.00;;;14.30
12918;BMP180;6526;54.312;13.092;2024-03-07T13:33:09;103183.00;;;14.30
12918;BMP180;6526;54.312;13.092;2024-03-07T13:35:38;103185.00;;;14.50
12918;BMP180;6526;54.312;13.092;2024-03-07T13:38:05;103189.00;;;14.40
12918;BMP180;6526;54.312;13.092;2024-03-07T13:40:32;103177.00;;;14.30
12918;BMP180;6526;54.312;13.092;2024-03-07T13:43:01;103183.00;;;14.30
12918;BMP180;6526;54.312;13.092;2024-03-07T13:45:31;103172.00;;;14.30
12918;BMP180;6526;54.312;13.092;2024-03-07T13:47:58;103173.00;;;14.30
12918;BMP180;6526;54.312;13.092;2024-03-07T13:50:28;103183.00;;;14.20
12918;BMP180;6526;54.312;13.092;2024-03-07T13:52:55;103173.00;;;14.20
12918;BMP180;6526;54.312;13.092;2024-03-07T14:01:33;103167.00;;;14.10
12918;BMP180;6526;54.312;13.092;2024-03-07T14:07:32;103169.00;;;14.10
12918;BMP180;6526;54.312;13.092;2024-03-07T14:10:39;103170.00;;;14.00
12918;BMP180;6526;54.312;13.092;2024-03-07T14:13:34;103170.00;;;14.10
12918;BMP180;6526;54.312;13.092;2024-03-07T14:19:31;103170.00;;;14.10
12918;BMP180;6526;54.312;13.092;2024-03-07T14:22:28;103164.00;;;14.00
12918;BMP180;6526;54.312;13.092;2024-03-07T14:25:25;103163.00;;;13.90
12918;BMP180;6526;54.312;13.092;2024-03-07T14:30:53;103158.00;;;13.90